Wake Village, Texas
Current Conditions -  °F | °C
As of 5:43 AM on Saturday 22 Nov 2014 (Local Time) from KTXK Reporting Station
Overcast Overcast  
Wind Chill: 55°   Ceiling: 2900
Heat Index: 55°   Visibility: 10mi
Dew Point: 53°   Wind: 10mph
Humidity: 93%   Direction: 140°SE
Pressure: 30.16"   Gusts: NA
Location:  33.3633°N, 94.2141°W
Report Text: KTXK 221143Z 14009KT 10SM OVC029 13/12 A3016 RMK AO2 RAE1055 P0000 T01280117
Loading
Personal Weather Stations






























Interactive Weather Map New forecast layout! Learn more

10-Day Weather Forecast

Advertisements
Track Severe Weather on mobile